createdAt,value
2023-04-30T00:00:16.637Z,7.96
2023-04-30T00:02:46.714Z,7.92
2023-04-30T00:05:16.675Z,7.90
2023-04-30T00:07:46.593Z,7.86
2023-04-30T00:10:18.986Z,7.85
2023-04-30T00:12:48.719Z,7.80
2023-04-30T00:15:18.380Z,7.83
2023-04-30T00:17:48.189Z,7.78
2023-04-30T00:20:18.020Z,7.72
2023-04-30T00:22:47.672Z,7.75
2023-04-30T00:25:21.193Z,7.68
2023-04-30T00:27:50.980Z,7.60
2023-04-30T00:30:20.894Z,7.55
2023-04-30T00:32:50.626Z,7.52
2023-04-30T00:35:20.931Z,7.47
2023-04-30T00:37:50.596Z,7.41
2023-04-30T00:40:23.180Z,7.36
2023-04-30T00:42:55.890Z,7.31
2023-04-30T00:45:25.958Z,7.28
2023-04-30T00:47:55.793Z,7.24
2023-04-30T00:50:25.792Z,7.21
2023-04-30T00:52:55.684Z,7.20
2023-04-30T00:55:28.517Z,7.27
2023-04-30T00:57:58.692Z,7.17
2023-04-30T01:00:28.410Z,7.19
2023-04-30T01:02:58.853Z,7.08
2023-04-30T01:05:28.811Z,7.09
2023-04-30T01:07:59.326Z,7.05
2023-04-30T01:10:33.595Z,7.08
2023-04-30T01:13:07.206Z,6.99
2023-04-30T01:15:41.694Z,7.03
2023-04-30T01:18:16.409Z,7.06
2023-04-30T01:20:50.385Z,7.03
2023-04-30T01:23:27.733Z,7.01
2023-04-30T01:26:11.181Z,6.95
2023-04-30T01:28:46.516Z,6.93
2023-04-30T01:31:17.093Z,6.90
2023-04-30T01:33:46.859Z,6.86
2023-04-30T01:36:36.208Z,6.80
2023-04-30T01:39:13.186Z,6.79
2023-04-30T01:41:48.919Z,6.76
2023-04-30T01:44:29.765Z,6.71
2023-04-30T01:47:04.391Z,6.70
2023-04-30T01:49:42.168Z,6.67
2023-04-30T01:52:17.412Z,6.62
2023-04-30T01:54:51.404Z,6.58
2023-04-30T01:57:25.534Z,6.52
2023-04-30T01:59:58.278Z,6.49
2023-04-30T02:02:28.384Z,6.42
2023-04-30T02:04:58.088Z,6.39
2023-04-30T02:07:39.373Z,6.42
2023-04-30T02:10:10.403Z,6.38
2023-04-30T02:12:40.110Z,6.34
2023-04-30T02:15:13.529Z,6.33
2023-04-30T02:17:44.183Z,6.27
2023-04-30T02:20:14.824Z,6.24
2023-04-30T02:22:46.080Z,6.22
2023-04-30T02:25:16.090Z,6.20
2023-04-30T02:27:45.771Z,6.23
2023-04-30T02:30:19.876Z,6.21
2023-04-30T02:32:50.831Z,6.16
2023-04-30T02:35:20.810Z,6.11
2023-04-30T02:37:50.489Z,6.09
2023-04-30T02:40:20.754Z,6.15
2023-04-30T02:42:56.365Z,6.09
2023-04-30T02:45:28.712Z,6.02
2023-04-30T02:47:58.530Z,6.00
2023-04-30T02:50:28.166Z,6.00
2023-04-30T02:52:58.827Z,5.96
2023-04-30T02:55:28.557Z,5.97
2023-04-30T02:57:58.280Z,5.96
2023-04-30T03:00:30.497Z,5.92
2023-04-30T03:03:00.496Z,5.92
2023-04-30T03:05:31.273Z,5.78
2023-04-30T03:08:01.072Z,5.76
2023-04-30T03:10:30.809Z,5.71
2023-04-30T03:13:00.596Z,5.73
2023-04-30T03:15:35.509Z,5.70
2023-04-30T03:18:05.348Z,5.61
2023-04-30T03:20:35.044Z,5.63
2023-04-30T03:23:04.930Z,5.67
2023-04-30T03:25:34.717Z,5.63
2023-04-30T03:28:04.514Z,5.56
2023-04-30T03:30:36.921Z,5.51
2023-04-30T03:33:07.949Z,5.49
2023-04-30T03:35:38.154Z,5.51
2023-04-30T03:38:08.551Z,5.51
2023-04-30T03:40:38.465Z,5.45
2023-04-30T03:43:08.474Z,5.45
2023-04-30T03:45:41.361Z,5.42
2023-04-30T03:48:11.287Z,5.37
2023-04-30T03:50:41.290Z,5.33
2023-04-30T03:53:11.204Z,5.34
2023-04-30T03:55:40.947Z,5.30
2023-04-30T03:58:11.378Z,5.29
2023-04-30T04:00:45.831Z,5.33
2023-04-30T04:03:15.896Z,5.28
2023-04-30T04:05:47.005Z,4.83
2023-04-30T04:08:16.906Z,4.92
2023-04-30T04:10:47.279Z,4.53
2023-04-30T04:13:17.166Z,4.46
2023-04-30T04:15:49.860Z,4.46
2023-04-30T04:18:20.248Z,4.44
2023-04-30T04:20:50.116Z,4.46
2023-04-30T04:23:20.164Z,4.46
2023-04-30T04:25:51.134Z,4.47
2023-04-30T04:28:21.478Z,4.45
2023-04-30T04:30:54.287Z,4.40
2023-04-30T04:33:24.254Z,4.38
2023-04-30T04:35:53.924Z,4.39
2023-04-30T04:38:24.207Z,4.37
2023-04-30T04:40:55.220Z,4.37
2023-04-30T04:43:26.363Z,4.36
2023-04-30T04:45:59.559Z,4.33
2023-04-30T04:48:29.474Z,4.29
2023-04-30T04:50:59.539Z,4.31
2023-04-30T04:53:29.759Z,4.28
2023-04-30T04:55:59.488Z,4.29
2023-04-30T04:58:29.947Z,4.28
2023-04-30T05:01:03.076Z,4.30
2023-04-30T05:03:34.272Z,4.29
2023-04-30T05:06:04.092Z,4.28
2023-04-30T05:08:34.457Z,4.29
2023-04-30T05:11:04.245Z,4.29
2023-04-30T05:13:33.964Z,4.29
2023-04-30T05:16:07.459Z,4.34
2023-04-30T05:18:37.469Z,4.34
2023-04-30T05:21:07.481Z,4.35
2023-04-30T05:23:37.707Z,4.26
2023-04-30T05:26:07.797Z,4.24
2023-04-30T05:28:37.511Z,4.25
2023-04-30T05:31:10.382Z,4.27
2023-04-30T05:33:40.934Z,4.27
2023-04-30T05:36:11.427Z,4.29
2023-04-30T05:38:41.199Z,4.29
2023-04-30T05:41:11.060Z,4.33
2023-04-30T05:43:41.315Z,4.37
2023-04-30T05:46:13.719Z,4.42
2023-04-30T05:48:43.964Z,4.45
2023-04-30T05:51:13.826Z,4.48
2023-04-30T05:53:43.580Z,4.54
2023-04-30T05:56:13.845Z,4.59
2023-04-30T05:58:43.599Z,4.63
2023-04-30T06:01:15.956Z,4.67
2023-04-30T06:03:46.114Z,4.71
2023-04-30T06:06:15.799Z,4.77
2023-04-30T06:08:45.971Z,4.84
2023-04-30T06:11:16.421Z,4.89
2023-04-30T06:13:47.115Z,4.93
2023-04-30T06:16:19.563Z,4.99
2023-04-30T06:18:50.380Z,5.02
2023-04-30T06:21:21.607Z,5.08
2023-04-30T06:23:51.793Z,5.13
2023-04-30T06:26:21.962Z,5.20
2023-04-30T06:28:51.626Z,5.26
2023-04-30T06:31:24.253Z,5.33
2023-04-30T06:33:54.070Z,5.40
2023-04-30T06:36:24.035Z,5.51
2023-04-30T06:38:53.862Z,5.61
2023-04-30T06:41:24.048Z,5.74
2023-04-30T06:43:53.797Z,5.87
2023-04-30T06:46:26.300Z,6.01
2023-04-30T06:48:56.578Z,6.12
2023-04-30T06:51:26.637Z,6.23
2023-04-30T06:53:56.846Z,6.32
2023-04-30T06:56:26.947Z,6.43
2023-04-30T06:58:56.665Z,6.54
2023-04-30T07:01:28.993Z,6.62
2023-04-30T07:03:58.855Z,6.72
2023-04-30T07:06:29.014Z,6.86
2023-04-30T07:08:58.784Z,6.98
2023-04-30T07:11:28.499Z,7.13
2023-04-30T07:13:58.341Z,7.27
2023-04-30T07:16:30.786Z,7.45
2023-04-30T07:19:00.668Z,7.55
2023-04-30T07:21:36.711Z,7.68
2023-04-30T07:24:07.144Z,7.81
2023-04-30T07:26:36.835Z,7.95
2023-04-30T07:29:07.092Z,8.04
2023-04-30T07:31:39.772Z,8.17
2023-04-30T07:34:09.722Z,8.31
2023-04-30T07:36:39.405Z,8.47
2023-04-30T07:39:09.117Z,8.63
2023-04-30T07:41:38.799Z,8.81
2023-04-30T07:44:08.509Z,8.96
2023-04-30T07:46:40.969Z,9.17
2023-04-30T07:49:11.284Z,9.34
2023-04-30T07:51:42.497Z,9.53
2023-04-30T07:54:12.388Z,9.68
2023-04-30T07:56:43.071Z,9.82
2023-04-30T07:59:12.967Z,10.00
2023-04-30T08:01:45.837Z,10.18
2023-04-30T08:04:15.811Z,10.34
2023-04-30T08:06:45.650Z,10.53
2023-04-30T08:09:16.032Z,10.61
2023-04-30T08:11:45.942Z,10.77
2023-04-30T08:14:16.116Z,10.92
2023-04-30T08:16:48.577Z,11.07
2023-04-30T08:19:18.385Z,11.23
2023-04-30T08:21:48.081Z,11.40
2023-04-30T08:24:17.820Z,11.58
2023-04-30T08:26:47.555Z,11.72
2023-04-30T08:29:17.270Z,11.85
2023-04-30T08:31:49.674Z,11.99
2023-04-30T08:34:20.013Z,12.16
2023-04-30T08:36:49.786Z,12.30
2023-04-30T08:39:19.606Z,12.49
2023-04-30T08:41:51.060Z,12.63
2023-04-30T08:44:22.090Z,12.79
2023-04-30T08:46:57.005Z,12.87
2023-04-30T08:49:28.502Z,12.96
2023-04-30T08:52:00.278Z,13.15
2023-04-30T08:54:32.152Z,13.23
2023-04-30T08:57:02.785Z,13.39
2023-04-30T08:59:32.561Z,13.47
2023-04-30T09:02:06.296Z,13.59
2023-04-30T09:04:36.543Z,13.62
2023-04-30T09:07:09.489Z,13.68
2023-04-30T09:09:41.832Z,13.80
2023-04-30T09:12:19.404Z,13.95
2023-04-30T09:15:11.434Z,14.08
2023-04-30T09:17:44.879Z,14.27
2023-04-30T09:20:18.213Z,14.33
2023-04-30T09:22:47.996Z,14.38
2023-04-30T09:25:18.232Z,14.43
2023-04-30T09:27:48.205Z,14.32
2023-04-30T09:30:33.830Z,14.54
2023-04-30T09:33:08.668Z,14.64
2023-04-30T09:35:43.545Z,14.82
2023-04-30T09:38:29.126Z,15.01
2023-04-30T09:41:02.079Z,15.18
2023-04-30T09:43:32.226Z,15.28
2023-04-30T09:46:02.579Z,15.34
2023-04-30T09:48:35.377Z,15.32
2023-04-30T09:51:06.448Z,15.44
2023-04-30T09:53:37.269Z,15.55
2023-04-30T09:56:10.432Z,15.66
2023-04-30T09:58:41.187Z,15.77
2023-04-30T10:01:12.274Z,15.92
2023-04-30T10:03:46.001Z,15.98
2023-04-30T10:06:16.890Z,15.95
2023-04-30T10:08:49.204Z,16.09
2023-04-30T10:11:22.019Z,16.18
2023-04-30T10:13:57.383Z,16.28
2023-04-30T10:16:32.373Z,16.10
2023-04-30T10:19:09.497Z,16.37
2023-04-30T10:21:43.528Z,16.46
2023-04-30T10:24:15.912Z,16.58
2023-04-30T10:26:46.907Z,16.64
2023-04-30T10:29:18.101Z,16.59
2023-04-30T10:31:49.448Z,16.71
2023-04-30T10:34:29.585Z,16.65
2023-04-30T10:37:02.498Z,16.82
2023-04-30T10:39:32.553Z,16.87
2023-04-30T10:42:06.387Z,16.95
2023-04-30T10:44:37.065Z,16.90
2023-04-30T10:47:08.274Z,16.92
2023-04-30T10:49:43.147Z,17.01
2023-04-30T10:52:14.570Z,17.12
2023-04-30T10:54:52.868Z,17.21
2023-04-30T10:57:25.254Z,17.02
2023-04-30T10:59:56.686Z,17.02
2023-04-30T11:02:26.838Z,17.19
2023-04-30T11:05:15.491Z,17.28
2023-04-30T11:07:52.666Z,17.20
2023-04-30T11:10:24.939Z,17.36
2023-04-30T11:12:55.814Z,17.40
2023-04-30T11:15:28.304Z,17.39
2023-04-30T11:17:59.992Z,17.47
2023-04-30T11:20:32.345Z,17.57
2023-04-30T11:23:14.229Z,17.73
2023-04-30T11:25:48.505Z,17.83
2023-04-30T11:28:20.517Z,17.79
2023-04-30T11:31:00.266Z,17.67
2023-04-30T11:33:31.057Z,17.78
2023-04-30T11:36:04.615Z,17.85
2023-04-30T11:38:37.486Z,17.90
2023-04-30T11:41:07.915Z,17.87
2023-04-30T11:43:37.872Z,17.75
2023-04-30T11:46:09.918Z,17.91
2023-04-30T11:48:41.023Z,17.99
2023-04-30T11:51:24.165Z,17.98
2023-04-30T11:53:55.473Z,18.08
2023-04-30T11:56:27.750Z,18.01
2023-04-30T11:58:57.780Z,18.00
2023-04-30T12:01:29.980Z,18.07
2023-04-30T12:04:00.633Z,18.22
2023-04-30T12:06:33.478Z,18.18
2023-04-30T12:09:04.871Z,18.28
2023-04-30T12:11:34.989Z,18.30
2023-04-30T12:14:07.698Z,18.31
2023-04-30T12:16:45.643Z,18.36
2023-04-30T12:19:16.073Z,18.34
2023-04-30T12:21:49.370Z,18.41
2023-04-30T12:24:20.652Z,18.35
2023-04-30T12:26:50.478Z,18.40
2023-04-30T12:29:21.296Z,18.43
2023-04-30T12:31:52.670Z,18.36
2023-04-30T12:34:23.016Z,18.32
2023-04-30T12:36:55.421Z,18.12
2023-04-30T12:39:25.141Z,18.26
2023-04-30T12:41:54.904Z,18.28
2023-04-30T12:44:26.193Z,18.27
2023-04-30T12:46:58.111Z,18.36
2023-04-30T12:49:28.931Z,18.34
2023-04-30T12:52:07.712Z,18.40
2023-04-30T12:54:38.738Z,18.37
2023-04-30T12:57:09.708Z,18.42
2023-04-30T12:59:40.914Z,18.37
2023-04-30T13:02:14.952Z,18.43
2023-04-30T13:04:45.708Z,18.20
2023-04-30T13:07:18.200Z,18.39
2023-04-30T13:09:47.933Z,18.28
2023-04-30T13:12:17.923Z,18.40
2023-04-30T13:14:47.746Z,18.49
2023-04-30T13:17:17.827Z,18.51
2023-04-30T13:19:47.493Z,18.47
2023-04-30T13:22:19.852Z,18.59
2023-04-30T13:24:49.583Z,18.49
2023-04-30T13:27:19.201Z,18.54
2023-04-30T13:29:49.044Z,18.51
2023-04-30T13:32:18.786Z,18.57
2023-04-30T13:34:48.461Z,18.61
2023-04-30T13:37:20.762Z,18.57
2023-04-30T13:39:50.456Z,18.45
2023-04-30T13:42:20.153Z,18.39
2023-04-30T13:44:50.145Z,18.35
2023-04-30T13:47:19.795Z,18.27
2023-04-30T13:49:49.482Z,18.35
2023-04-30T13:52:21.888Z,18.22
2023-04-30T13:54:51.566Z,18.20
2023-04-30T13:57:21.284Z,18.25
2023-04-30T13:59:51.017Z,18.19
2023-04-30T14:02:20.861Z,18.13
2023-04-30T14:05:04.590Z,18.17
2023-04-30T14:07:37.903Z,18.21
2023-04-30T14:10:08.956Z,18.22
2023-04-30T14:12:39.012Z,18.15
2023-04-30T14:15:09.628Z,18.28
2023-04-30T14:17:39.820Z,18.29
2023-04-30T14:20:11.385Z,18.29
2023-04-30T14:22:43.721Z,18.17
2023-04-30T14:25:13.609Z,18.20
2023-04-30T14:27:43.680Z,18.17
2023-04-30T14:30:14.477Z,18.13
2023-04-30T14:32:44.293Z,18.15
2023-04-30T14:35:13.916Z,18.25
2023-04-30T14:37:46.200Z,18.19
2023-04-30T14:40:16.980Z,18.23
2023-04-30T14:42:46.665Z,18.20
2023-04-30T14:45:16.910Z,18.22
2023-04-30T14:47:46.817Z,18.24
2023-04-30T14:50:16.570Z,18.30
2023-04-30T14:52:48.831Z,18.36
2023-04-30T14:55:22.997Z,18.43
2023-04-30T14:57:54.198Z,18.53
2023-04-30T15:00:24.201Z,18.43
2023-04-30T15:02:54.403Z,18.33
2023-04-30T15:05:24.205Z,18.38
2023-04-30T15:07:56.492Z,18.39
2023-04-30T15:10:26.481Z,18.40
2023-04-30T15:12:56.767Z,18.39
2023-04-30T15:15:28.933Z,18.28
2023-04-30T15:17:59.989Z,18.23
2023-04-30T15:20:29.760Z,18.22
2023-04-30T15:23:02.073Z,18.18
2023-04-30T15:25:32.255Z,18.07
2023-04-30T15:28:02.075Z,18.02
2023-04-30T15:30:31.764Z,18.07
2023-04-30T15:33:01.437Z,18.10
2023-04-30T15:35:31.229Z,18.08
2023-04-30T15:38:03.561Z,18.17
2023-04-30T15:40:33.298Z,18.16
2023-04-30T15:43:02.945Z,18.13
2023-04-30T15:45:33.747Z,18.13
2023-04-30T15:48:03.776Z,17.95
2023-04-30T15:50:33.793Z,17.96
2023-04-30T15:53:06.284Z,17.93
2023-04-30T15:55:36.043Z,17.87
2023-04-30T15:58:06.108Z,17.86
2023-04-30T16:00:35.749Z,17.81
2023-04-30T16:03:05.428Z,17.84
2023-04-30T16:05:38.853Z,17.77
2023-04-30T16:08:12.257Z,17.76
2023-04-30T16:10:42.267Z,17.70
2023-04-30T16:13:11.993Z,17.57
2023-04-30T16:15:41.729Z,17.58
2023-04-30T16:18:11.366Z,17.49
2023-04-30T16:20:41.554Z,17.49
2023-04-30T16:23:13.869Z,17.46
2023-04-30T16:25:43.713Z,17.44
2023-04-30T16:28:13.508Z,17.36
2023-04-30T16:30:44.016Z,17.41
2023-04-30T16:33:13.788Z,17.43
2023-04-30T16:35:43.652Z,17.42
2023-04-30T16:38:16.070Z,17.44
2023-04-30T16:40:45.839Z,17.47
2023-04-30T16:43:15.507Z,17.49
2023-04-30T16:45:45.223Z,17.47
2023-04-30T16:48:14.993Z,17.55
2023-04-30T16:50:44.683Z,17.54
2023-04-30T16:53:16.970Z,17.53
2023-04-30T16:55:46.705Z,17.52
2023-04-30T16:58:16.866Z,17.42
2023-04-30T17:00:46.706Z,17.45
2023-04-30T17:03:16.508Z,17.46
2023-04-30T17:05:46.271Z,17.45
2023-04-30T17:08:19.524Z,17.32
2023-04-30T17:10:49.367Z,17.36
2023-04-30T17:13:19.144Z,17.36
2023-04-30T17:15:49.204Z,17.30
2023-04-30T17:18:20.032Z,17.29
2023-04-30T17:20:49.813Z,17.39
2023-04-30T17:23:22.124Z,17.37
2023-04-30T17:25:51.835Z,17.40
2023-04-30T17:28:21.945Z,17.44
2023-04-30T17:30:51.803Z,17.38
2023-04-30T17:33:21.615Z,17.29
2023-04-30T17:35:51.587Z,17.17
2023-04-30T17:38:23.929Z,17.17
2023-04-30T17:40:56.790Z,17.15
2023-04-30T17:43:26.646Z,17.12
2023-04-30T17:45:57.426Z,17.16
2023-04-30T17:48:27.426Z,17.23
2023-04-30T17:50:57.489Z,17.35
2023-04-30T17:53:29.766Z,17.42
2023-04-30T17:56:00.164Z,17.40
2023-04-30T17:58:30.533Z,17.33
2023-04-30T18:01:01.800Z,17.40
2023-04-30T18:03:32.629Z,17.30
2023-04-30T18:06:02.501Z,17.24
2023-04-30T18:08:35.473Z,17.00
2023-04-30T18:11:05.633Z,16.84
2023-04-30T18:13:41.564Z,16.66
2023-04-30T18:16:11.320Z,16.47
2023-04-30T18:18:41.111Z,16.36
2023-04-30T18:21:11.446Z,16.24
2023-04-30T18:23:43.793Z,16.17
2023-04-30T18:26:13.516Z,16.09
2023-04-30T18:28:43.176Z,16.03
2023-04-30T18:31:12.991Z,15.92
2023-04-30T18:33:43.236Z,15.78
2023-04-30T18:36:13.223Z,15.70
2023-04-30T18:38:46.085Z,15.62
2023-04-30T18:41:15.885Z,15.54
2023-04-30T18:43:45.875Z,15.44
2023-04-30T18:46:15.585Z,15.36
2023-04-30T18:48:45.255Z,15.28
2023-04-30T18:51:15.092Z,15.20
2023-04-30T18:53:47.847Z,15.07
2023-04-30T18:56:17.680Z,15.01
2023-04-30T18:58:48.348Z,14.94
2023-04-30T19:01:18.418Z,14.86
2023-04-30T19:03:48.128Z,14.77
2023-04-30T19:06:17.906Z,14.70
2023-04-30T19:08:50.298Z,14.64
2023-04-30T19:11:20.096Z,14.54
2023-04-30T19:13:49.768Z,14.48
2023-04-30T19:16:19.541Z,14.42
2023-04-30T19:18:49.271Z,14.33
2023-04-30T19:21:19.565Z,14.24
2023-04-30T19:23:52.003Z,14.16
2023-04-30T19:26:22.141Z,14.09
2023-04-30T19:28:51.780Z,13.98
2023-04-30T19:31:22.486Z,13.89
2023-04-30T19:33:52.201Z,13.80
2023-04-30T19:36:21.888Z,13.75
2023-04-30T19:38:56.308Z,13.65
2023-04-30T19:41:26.095Z,13.55
2023-04-30T19:43:56.721Z,13.49
2023-04-30T19:46:27.218Z,13.44
2023-04-30T19:48:56.973Z,13.37
2023-04-30T19:51:26.689Z,13.32
2023-04-30T19:53:59.136Z,13.24
2023-04-30T19:56:29.095Z,13.18
2023-04-30T19:58:58.959Z,13.10
2023-04-30T20:01:28.862Z,13.04
2023-04-30T20:03:58.691Z,12.97
2023-04-30T20:06:28.614Z,12.91
2023-04-30T20:09:01.175Z,12.85
2023-04-30T20:11:31.054Z,12.77
2023-04-30T20:14:00.817Z,12.68
2023-04-30T20:16:30.851Z,12.63
2023-04-30T20:19:00.678Z,12.56
2023-04-30T20:21:30.460Z,12.53
2023-04-30T20:24:04.328Z,12.49
2023-04-30T20:26:34.636Z,12.42
2023-04-30T20:29:04.278Z,12.37
2023-04-30T20:31:34.488Z,12.32
2023-04-30T20:34:04.279Z,12.25
2023-04-30T20:36:34.509Z,12.21
2023-04-30T20:39:07.168Z,12.18
2023-04-30T20:41:37.971Z,12.11
2023-04-30T20:44:08.132Z,12.06
2023-04-30T20:46:38.432Z,12.02
2023-04-30T20:49:11.130Z,11.97
2023-04-30T20:51:41.174Z,11.94
2023-04-30T20:54:13.611Z,11.91
2023-04-30T20:56:45.192Z,11.84
2023-04-30T20:59:14.955Z,11.81
2023-04-30T21:01:44.750Z,11.75
2023-04-30T21:04:14.561Z,11.69
2023-04-30T21:06:44.331Z,11.66
2023-04-30T21:09:16.902Z,11.58
2023-04-30T21:11:46.602Z,11.54
2023-04-30T21:14:16.342Z,11.48
2023-04-30T21:16:46.547Z,11.43
2023-04-30T21:19:16.422Z,11.36
2023-04-30T21:21:46.505Z,11.29
2023-04-30T21:24:19.241Z,11.24
2023-04-30T21:26:49.479Z,11.18
2023-04-30T21:29:19.262Z,11.10
2023-04-30T21:31:48.937Z,11.05
2023-04-30T21:34:19.798Z,11.00
2023-04-30T21:36:49.416Z,10.93
2023-04-30T21:39:21.738Z,10.88
2023-04-30T21:41:51.980Z,10.86
2023-04-30T21:44:22.295Z,10.81
2023-04-30T21:46:52.256Z,10.73
2023-04-30T21:49:22.009Z,10.68
2023-04-30T21:51:51.951Z,10.62
2023-04-30T21:54:24.229Z,10.58
2023-04-30T21:56:53.931Z,10.55
2023-04-30T21:59:23.590Z,10.50
2023-04-30T22:01:53.357Z,10.45
2023-04-30T22:04:25.423Z,10.38
2023-04-30T22:06:55.305Z,10.35
2023-04-30T22:09:27.624Z,10.31
2023-04-30T22:11:57.272Z,10.24
2023-04-30T22:14:27.033Z,10.22
2023-04-30T22:16:56.726Z,10.19
2023-04-30T22:19:26.389Z,10.16
2023-04-30T22:21:56.042Z,10.10
2023-04-30T22:24:28.446Z,10.05
2023-04-30T22:26:58.158Z,10.00
2023-04-30T22:29:27.836Z,9.99
2023-04-30T22:31:57.621Z,9.95
2023-04-30T22:34:27.345Z,9.89
2023-04-30T22:36:56.986Z,9.85
2023-04-30T22:39:29.321Z,9.81
2023-04-30T22:41:59.507Z,9.75
2023-04-30T22:44:29.261Z,9.72
2023-04-30T22:46:59.267Z,9.67
2023-04-30T22:49:31.759Z,9.62
2023-04-30T22:52:02.058Z,9.57
2023-04-30T22:54:34.296Z,9.55
2023-04-30T22:57:03.975Z,9.51
2023-04-30T22:59:33.974Z,9.47
2023-04-30T23:02:03.706Z,9.45
2023-04-30T23:04:33.922Z,9.41
2023-04-30T23:07:03.716Z,9.37
2023-04-30T23:09:36.048Z,9.36
2023-04-30T23:12:06.311Z,9.32
2023-04-30T23:14:35.920Z,9.28
2023-04-30T23:17:05.964Z,9.25
2023-04-30T23:19:35.758Z,9.21
2023-04-30T23:22:05.620Z,9.17
2023-04-30T23:24:39.279Z,9.13
2023-04-30T23:27:09.047Z,9.10
2023-04-30T23:29:38.800Z,9.07
2023-04-30T23:32:08.603Z,9.03
2023-04-30T23:34:38.295Z,9.02
2023-04-30T23:37:08.038Z,8.99
2023-04-30T23:39:40.285Z,8.94
2023-04-30T23:42:10.320Z,8.94
2023-04-30T23:44:39.966Z,8.89
2023-04-30T23:47:10.449Z,8.87
2023-04-30T23:49:40.091Z,8.85
2023-04-30T23:52:10.037Z,8.81
2023-04-30T23:54:42.245Z,8.78
2023-04-30T23:57:12.114Z,8.76
2023-04-30T23:59:42.633Z,8.75
